sensor_id;sensor_type;location;lat;lon;timestamp;P1;durP1;ratioP1;P2;durP2;ratioP2
3959;SDS011;1994;48.640;8.894;2022-08-03T00:00:16;5.50;;;3.93;;
3959;SDS011;1994;48.640;8.894;2022-08-03T00:02:45;4.53;;;3.57;;
3959;SDS011;1994;48.640;8.894;2022-08-03T00:05:11;4.43;;;4.00;;
3959;SDS011;1994;48.640;8.894;2022-08-03T00:07:39;5.00;;;4.53;;
3959;SDS011;1994;48.640;8.894;2022-08-03T00:10:05;4.80;;;3.73;;
3959;SDS011;1994;48.640;8.894;2022-08-03T00:12:32;6.37;;;4.37;;
3959;SDS011;1994;48.640;8.894;2022-08-03T00:15:00;4.23;;;3.90;;
3959;SDS011;1994;48.640;8.894;2022-08-03T00:17:29;4.17;;;3.77;;
3959;SDS011;1994;48.640;8.894;2022-08-03T00:19:55;10.80;;;3.93;;
3959;SDS011;1994;48.640;8.894;2022-08-03T00:22:21;5.73;;;3.20;;
3959;SDS011;1994;48.640;8.894;2022-08-03T00:24:49;3.37;;;3.07;;
3959;SDS011;1994;48.640;8.894;2022-08-03T00:27:17;7.73;;;3.90;;
3959;SDS011;1994;48.640;8.894;2022-08-03T00:29:43;3.97;;;3.60;;
3959;SDS011;1994;48.640;8.894;2022-08-03T00:32:09;4.20;;;3.80;;
3959;SDS011;1994;48.640;8.894;2022-08-03T00:34:37;4.00;;;3.60;;
3959;SDS011;1994;48.640;8.894;2022-08-03T00:37:03;4.90;;;4.00;;
3959;SDS011;1994;48.640;8.894;2022-08-03T00:39:29;4.33;;;3.43;;
3959;SDS011;1994;48.640;8.894;2022-08-03T00:41:55;4.40;;;4.00;;
3959;SDS011;1994;48.640;8.894;2022-08-03T00:44:21;4.27;;;3.87;;
3959;SDS011;1994;48.640;8.894;2022-08-03T00:46:47;4.00;;;3.70;;
3959;SDS011;1994;48.640;8.894;2022-08-03T00:49:13;6.93;;;3.47;;
3959;SDS011;1994;48.640;8.894;2022-08-03T00:51:41;8.03;;;4.00;;
3959;SDS011;1994;48.640;8.894;2022-08-03T00:54:10;11.80;;;3.67;;
3959;SDS011;1994;48.640;8.894;2022-08-03T00:56:39;4.87;;;3.83;;
3959;SDS011;1994;48.640;8.894;2022-08-03T00:59:08;4.60;;;3.63;;
3959;SDS011;1994;48.640;8.894;2022-08-03T01:01:34;5.83;;;3.60;;
3959;SDS011;1994;48.640;8.894;2022-08-03T01:04:03;7.50;;;4.03;;
3959;SDS011;1994;48.640;8.894;2022-08-03T01:06:33;7.83;;;4.10;;
3959;SDS011;1994;48.640;8.894;2022-08-03T01:09:44;3.90;;;3.50;;
3959;SDS011;1994;48.640;8.894;2022-08-03T01:17:54;8.60;;;4.20;;
3959;SDS011;1994;48.640;8.894;2022-08-03T01:20:51;5.43;;;4.90;;
3959;SDS011;1994;48.640;8.894;2022-08-03T01:31:54;5.30;;;3.70;;
3959;SDS011;1994;48.640;8.894;2022-08-03T01:37:13;4.00;;;3.60;;
3959;SDS011;1994;48.640;8.894;2022-08-03T01:39:45;4.63;;;4.23;;
3959;SDS011;1994;48.640;8.894;2022-08-03T01:42:13;4.73;;;3.63;;
3959;SDS011;1994;48.640;8.894;2022-08-03T01:44:41;4.40;;;4.00;;
3959;SDS011;1994;48.640;8.894;2022-08-03T01:47:09;6.53;;;4.20;;
3959;SDS011;1994;48.640;8.894;2022-08-03T01:49:42;7.23;;;4.13;;
3959;SDS011;1994;48.640;8.894;2022-08-03T01:52:09;5.63;;;4.17;;
3959;SDS011;1994;48.640;8.894;2022-08-03T01:54:42;5.30;;;4.23;;
3959;SDS011;1994;48.640;8.894;2022-08-03T01:57:12;5.57;;;4.17;;
3959;SDS011;1994;48.640;8.894;2022-08-03T01:59:40;5.07;;;3.60;;
3959;SDS011;1994;48.640;8.894;2022-08-03T02:02:12;6.53;;;3.80;;
3959;SDS011;1994;48.640;8.894;2022-08-03T02:04:40;9.47;;;4.20;;
3959;SDS011;1994;48.640;8.894;2022-08-03T02:07:08;10.23;;;4.10;;
3959;SDS011;1994;48.640;8.894;2022-08-03T02:09:36;4.53;;;4.07;;
3959;SDS011;1994;48.640;8.894;2022-08-03T02:12:08;4.27;;;3.70;;
3959;SDS011;1994;48.640;8.894;2022-08-03T02:14:36;7.77;;;4.67;;
3959;SDS011;1994;48.640;8.894;2022-08-03T02:17:05;5.23;;;4.17;;
3959;SDS011;1994;48.640;8.894;2022-08-03T02:19:32;4.67;;;3.70;;
3959;SDS011;1994;48.640;8.894;2022-08-03T02:22:00;3.53;;;3.23;;
3959;SDS011;1994;48.640;8.894;2022-08-03T02:24:33;5.13;;;3.70;;
3959;SDS011;1994;48.640;8.894;2022-08-03T02:26:59;5.20;;;4.70;;
3959;SDS011;1994;48.640;8.894;2022-08-03T02:29:28;4.83;;;3.87;;
3959;SDS011;1994;48.640;8.894;2022-08-03T02:32:06;11.43;;;4.20;;
3959;SDS011;1994;48.640;8.894;2022-08-03T02:34:36;4.70;;;4.17;;
3959;SDS011;1994;48.640;8.894;2022-08-03T02:37:04;3.90;;;3.60;;
3959;SDS011;1994;48.640;8.894;2022-08-03T02:39:32;3.83;;;3.53;;
3959;SDS011;1994;48.640;8.894;2022-08-03T02:41:59;4.63;;;4.13;;
3959;SDS011;1994;48.640;8.894;2022-08-03T02:44:29;4.67;;;4.27;;
3959;SDS011;1994;48.640;8.894;2022-08-03T02:47:04;7.53;;;3.40;;
3959;SDS011;1994;48.640;8.894;2022-08-03T02:49:35;4.10;;;3.63;;
3959;SDS011;1994;48.640;8.894;2022-08-03T02:52:02;5.13;;;4.40;;
3959;SDS011;1994;48.640;8.894;2022-08-03T02:54:33;7.07;;;4.17;;
3959;SDS011;1994;48.640;8.894;2022-08-03T02:57:00;5.00;;;3.30;;
3959;SDS011;1994;48.640;8.894;2022-08-03T02:59:27;6.50;;;4.07;;
3959;SDS011;1994;48.640;8.894;2022-08-03T03:02:00;4.30;;;3.90;;
3959;SDS011;1994;48.640;8.894;2022-08-03T03:04:27;7.27;;;4.13;;
3959;SDS011;1994;48.640;8.894;2022-08-03T03:06:56;4.17;;;3.77;;
3959;SDS011;1994;48.640;8.894;2022-08-03T03:09:24;4.37;;;3.90;;
3959;SDS011;1994;48.640;8.894;2022-08-03T03:11:53;4.60;;;4.20;;
3959;SDS011;1994;48.640;8.894;2022-08-03T03:14:20;5.40;;;4.90;;
3959;SDS011;1994;48.640;8.894;2022-08-03T03:16:48;4.70;;;3.73;;
3959;SDS011;1994;48.640;8.894;2022-08-03T03:19:15;8.57;;;4.60;;
3959;SDS011;1994;48.640;8.894;2022-08-03T03:21:43;4.93;;;4.43;;
3959;SDS011;1994;48.640;8.894;2022-08-03T03:24:09;7.40;;;4.53;;
3959;SDS011;1994;48.640;8.894;2022-08-03T03:26:39;7.37;;;4.90;;
3959;SDS011;1994;48.640;8.894;2022-08-03T03:29:05;9.47;;;4.23;;
3959;SDS011;1994;48.640;8.894;2022-08-03T03:31:32;4.90;;;3.90;;
3959;SDS011;1994;48.640;8.894;2022-08-03T03:34:01;5.33;;;4.40;;
3959;SDS011;1994;48.640;8.894;2022-08-03T03:36:27;5.53;;;4.50;;
3959;SDS011;1994;48.640;8.894;2022-08-03T03:39:05;5.50;;;4.13;;
3959;SDS011;1994;48.640;8.894;2022-08-03T03:41:31;5.50;;;3.87;;
3959;SDS011;1994;48.640;8.894;2022-08-03T03:43:57;5.00;;;4.07;;
3959;SDS011;1994;48.640;8.894;2022-08-03T03:46:23;10.47;;;4.60;;
3959;SDS011;1994;48.640;8.894;2022-08-03T03:48:49;4.83;;;4.10;;
3959;SDS011;1994;48.640;8.894;2022-08-03T03:51:15;7.90;;;4.27;;
3959;SDS011;1994;48.640;8.894;2022-08-03T03:53:58;15.07;;;5.40;;
3959;SDS011;1994;48.640;8.894;2022-08-03T03:56:30;5.00;;;4.03;;
3959;SDS011;1994;48.640;8.894;2022-08-03T03:58:56;8.23;;;4.33;;
3959;SDS011;1994;48.640;8.894;2022-08-03T04:01:25;3.90;;;3.60;;
3959;SDS011;1994;48.640;8.894;2022-08-03T04:03:51;4.90;;;4.50;;
3959;SDS011;1994;48.640;8.894;2022-08-03T04:06:17;4.50;;;4.10;;
3959;SDS011;1994;48.640;8.894;2022-08-03T04:09:02;5.30;;;4.20;;
3959;SDS011;1994;48.640;8.894;2022-08-03T04:11:49;4.30;;;3.90;;
3959;SDS011;1994;48.640;8.894;2022-08-03T04:17:00;4.93;;;4.13;;
3959;SDS011;1994;48.640;8.894;2022-08-03T04:19:33;6.57;;;4.20;;
3959;SDS011;1994;48.640;8.894;2022-08-03T04:22:02;6.23;;;5.03;;
3959;SDS011;1994;48.640;8.894;2022-08-03T04:24:38;4.67;;;4.27;;
3959;SDS011;1994;48.640;8.894;2022-08-03T04:27:10;4.67;;;4.23;;
3959;SDS011;1994;48.640;8.894;2022-08-03T04:29:40;6.00;;;3.70;;
3959;SDS011;1994;48.640;8.894;2022-08-03T04:32:11;7.63;;;3.97;;
3959;SDS011;1994;48.640;8.894;2022-08-03T04:34:38;5.23;;;4.23;;
3959;SDS011;1994;48.640;8.894;2022-08-03T04:37:07;4.17;;;3.80;;
3959;SDS011;1994;48.640;8.894;2022-08-03T04:39:41;4.83;;;4.43;;
3959;SDS011;1994;48.640;8.894;2022-08-03T04:42:13;6.40;;;4.00;;
3959;SDS011;1994;48.640;8.894;2022-08-03T04:44:41;6.10;;;4.50;;
3959;SDS011;1994;48.640;8.894;2022-08-03T04:47:08;6.20;;;4.30;;
3959;SDS011;1994;48.640;8.894;2022-08-03T04:49:34;7.60;;;4.93;;
3959;SDS011;1994;48.640;8.894;2022-08-03T04:52:04;5.83;;;5.10;;
3959;SDS011;1994;48.640;8.894;2022-08-03T04:54:41;5.70;;;4.60;;
3959;SDS011;1994;48.640;8.894;2022-08-03T04:57:12;4.70;;;4.10;;
3959;SDS011;1994;48.640;8.894;2022-08-03T04:59:38;5.57;;;4.83;;
3959;SDS011;1994;48.640;8.894;2022-08-03T05:02:06;6.83;;;4.70;;
3959;SDS011;1994;48.640;8.894;2022-08-03T05:04:32;8.20;;;5.30;;
3959;SDS011;1994;48.640;8.894;2022-08-03T05:06:58;5.40;;;4.87;;
3959;SDS011;1994;48.640;8.894;2022-08-03T05:09:29;5.63;;;5.00;;
3959;SDS011;1994;48.640;8.894;2022-08-03T05:11:54;5.40;;;4.90;;
3959;SDS011;1994;48.640;8.894;2022-08-03T05:14:20;7.60;;;5.10;;
3959;SDS011;1994;48.640;8.894;2022-08-03T05:16:46;5.87;;;4.70;;
3959;SDS011;1994;48.640;8.894;2022-08-03T05:19:12;6.00;;;5.40;;
3959;SDS011;1994;48.640;8.894;2022-08-03T05:21:38;6.23;;;5.47;;
3959;SDS011;1994;48.640;8.894;2022-08-03T05:24:07;7.47;;;5.47;;
3959;SDS011;1994;48.640;8.894;2022-08-03T05:26:32;5.73;;;5.13;;
3959;SDS011;1994;48.640;8.894;2022-08-03T05:29:01;7.90;;;5.77;;
3959;SDS011;1994;48.640;8.894;2022-08-03T05:31:27;6.83;;;5.60;;
3959;SDS011;1994;48.640;8.894;2022-08-03T05:33:56;7.53;;;6.67;;
3959;SDS011;1994;48.640;8.894;2022-08-03T05:36:22;6.07;;;5.17;;
3959;SDS011;1994;48.640;8.894;2022-08-03T05:38:50;7.10;;;5.20;;
3959;SDS011;1994;48.640;8.894;2022-08-03T05:41:16;7.57;;;5.40;;
3959;SDS011;1994;48.640;8.894;2022-08-03T05:43:42;6.90;;;5.10;;
3959;SDS011;1994;48.640;8.894;2022-08-03T05:46:08;6.70;;;5.30;;
3959;SDS011;1994;48.640;8.894;2022-08-03T05:48:34;7.63;;;5.80;;
3959;SDS011;1994;48.640;8.894;2022-08-03T05:51:00;7.10;;;6.17;;
3959;SDS011;1994;48.640;8.894;2022-08-03T05:53:26;8.90;;;5.77;;
3959;SDS011;1994;48.640;8.894;2022-08-03T05:55:53;6.40;;;5.80;;
3959;SDS011;1994;48.640;8.894;2022-08-03T05:58:20;6.40;;;5.67;;
3959;SDS011;1994;48.640;8.894;2022-08-03T06:00:45;6.80;;;5.73;;
3959;SDS011;1994;48.640;8.894;2022-08-03T06:03:11;6.63;;;6.03;;
3959;SDS011;1994;48.640;8.894;2022-08-03T06:05:37;8.67;;;6.47;;
3959;SDS011;1994;48.640;8.894;2022-08-03T06:08:03;7.53;;;5.47;;
3959;SDS011;1994;48.640;8.894;2022-08-03T06:10:29;8.03;;;5.87;;
3959;SDS011;1994;48.640;8.894;2022-08-03T06:12:55;9.50;;;5.50;;
3959;SDS011;1994;48.640;8.894;2022-08-03T06:15:21;5.77;;;5.17;;
3959;SDS011;1994;48.640;8.894;2022-08-03T06:17:47;12.23;;;5.07;;
3959;SDS011;1994;48.640;8.894;2022-08-03T06:20:20;6.53;;;5.13;;
3959;SDS011;1994;48.640;8.894;2022-08-03T06:22:46;6.37;;;5.30;;
3959;SDS011;1994;48.640;8.894;2022-08-03T06:25:12;10.10;;;6.50;;
3959;SDS011;1994;48.640;8.894;2022-08-03T06:27:38;11.30;;;6.10;;
3959;SDS011;1994;48.640;8.894;2022-08-03T06:30:07;8.10;;;5.57;;
3959;SDS011;1994;48.640;8.894;2022-08-03T06:32:37;7.30;;;5.87;;
3959;SDS011;1994;48.640;8.894;2022-08-03T06:35:08;7.57;;;6.20;;
3959;SDS011;1994;48.640;8.894;2022-08-03T06:37:44;7.47;;;6.30;;
3959;SDS011;1994;48.640;8.894;2022-08-03T06:40:15;7.10;;;6.17;;
3959;SDS011;1994;48.640;8.894;2022-08-03T06:42:44;9.20;;;7.50;;
3959;SDS011;1994;48.640;8.894;2022-08-03T06:45:11;6.07;;;5.47;;
3959;SDS011;1994;48.640;8.894;2022-08-03T06:47:37;6.77;;;6.07;;
3959;SDS011;1994;48.640;8.894;2022-08-03T06:50:04;9.20;;;6.07;;
3959;SDS011;1994;48.640;8.894;2022-08-03T06:52:31;8.20;;;5.93;;
3959;SDS011;1994;48.640;8.894;2022-08-03T06:54:57;6.23;;;5.63;;
3959;SDS011;1994;48.640;8.894;2022-08-03T06:57:23;7.60;;;5.53;;
3959;SDS011;1994;48.640;8.894;2022-08-03T06:59:49;6.80;;;5.30;;
3959;SDS011;1994;48.640;8.894;2022-08-03T07:02:15;12.23;;;5.17;;
3959;SDS011;1994;48.640;8.894;2022-08-03T07:04:43;5.53;;;5.03;;
3959;SDS011;1994;48.640;8.894;2022-08-03T07:07:09;10.50;;;5.27;;
3959;SDS011;1994;48.640;8.894;2022-08-03T07:09:35;4.20;;;3.80;;
3959;SDS011;1994;48.640;8.894;2022-08-03T07:12:00;5.57;;;4.10;;
3959;SDS011;1994;48.640;8.894;2022-08-03T07:14:30;9.37;;;3.30;;
3959;SDS011;1994;48.640;8.894;2022-08-03T07:16:56;3.63;;;3.30;;
3959;SDS011;1994;48.640;8.894;2022-08-03T07:19:22;3.50;;;3.20;;
3959;SDS011;1994;48.640;8.894;2022-08-03T07:21:48;3.70;;;3.40;;
3959;SDS011;1994;48.640;8.894;2022-08-03T07:24:16;4.97;;;3.47;;
3959;SDS011;1994;48.640;8.894;2022-08-03T07:26:42;3.47;;;3.00;;
3959;SDS011;1994;48.640;8.894;2022-08-03T07:29:08;6.07;;;4.00;;
3959;SDS011;1994;48.640;8.894;2022-08-03T07:31:34;5.40;;;4.20;;
3959;SDS011;1994;48.640;8.894;2022-08-03T07:34:02;4.30;;;3.90;;
3959;SDS011;1994;48.640;8.894;2022-08-03T07:36:28;5.90;;;4.00;;
3959;SDS011;1994;48.640;8.894;2022-08-03T07:38:58;6.67;;;4.20;;
3959;SDS011;1994;48.640;8.894;2022-08-03T07:41:24;3.40;;;3.10;;
3959;SDS011;1994;48.640;8.894;2022-08-03T07:43:55;5.93;;;3.60;;
3959;SDS011;1994;48.640;8.894;2022-08-03T07:46:21;3.80;;;3.37;;
3959;SDS011;1994;48.640;8.894;2022-08-03T07:48:47;5.70;;;3.90;;
3959;SDS011;1994;48.640;8.894;2022-08-03T07:51:16;4.03;;;3.50;;
3959;SDS011;1994;48.640;8.894;2022-08-03T07:53:45;4.40;;;4.00;;
3959;SDS011;1994;48.640;8.894;2022-08-03T07:56:11;4.13;;;3.13;;
3959;SDS011;1994;48.640;8.894;2022-08-03T07:58:36;3.93;;;3.53;;
3959;SDS011;1994;48.640;8.894;2022-08-03T08:01:02;3.13;;;2.93;;
3959;SDS011;1994;48.640;8.894;2022-08-03T08:03:28;3.20;;;2.90;;
3959;SDS011;1994;48.640;8.894;2022-08-03T08:05:57;3.77;;;3.10;;
3959;SDS011;1994;48.640;8.894;2022-08-03T08:08:23;3.80;;;3.50;;
3959;SDS011;1994;48.640;8.894;2022-08-03T08:10:49;3.43;;;3.07;;
3959;SDS011;1994;48.640;8.894;2022-08-03T08:13:14;7.00;;;3.20;;
3959;SDS011;1994;48.640;8.894;2022-08-03T08:15:40;3.73;;;3.40;;
3959;SDS011;1994;48.640;8.894;2022-08-03T08:18:06;3.40;;;3.10;;
3959;SDS011;1994;48.640;8.894;2022-08-03T08:20:33;3.30;;;3.10;;
3959;SDS011;1994;48.640;8.894;2022-08-03T08:23:02;3.57;;;3.23;;
3959;SDS011;1994;48.640;8.894;2022-08-03T08:25:37;4.00;;;3.40;;
3959;SDS011;1994;48.640;8.894;2022-08-03T08:28:06;3.00;;;2.77;;
3959;SDS011;1994;48.640;8.894;2022-08-03T08:30:32;3.67;;;3.27;;
3959;SDS011;1994;48.640;8.894;2022-08-03T08:32:58;3.47;;;2.90;;
3959;SDS011;1994;48.640;8.894;2022-08-03T08:35:24;2.57;;;2.37;;
3959;SDS011;1994;48.640;8.894;2022-08-03T08:37:50;2.10;;;1.97;;
3959;SDS011;1994;48.640;8.894;2022-08-03T08:40:16;5.87;;;2.40;;
3959;SDS011;1994;48.640;8.894;2022-08-03T08:42:46;2.30;;;2.10;;
3959;SDS011;1994;48.640;8.894;2022-08-03T08:45:12;6.50;;;2.47;;
3959;SDS011;1994;48.640;8.894;2022-08-03T08:47:40;1.80;;;1.70;;
3959;SDS011;1994;48.640;8.894;2022-08-03T08:50:11;11.00;;;2.50;;
3959;SDS011;1994;48.640;8.894;2022-08-03T08:52:42;2.43;;;2.00;;
3959;SDS011;1994;48.640;8.894;2022-08-03T08:55:12;4.63;;;2.33;;
3959;SDS011;1994;48.640;8.894;2022-08-03T08:57:47;4.10;;;2.00;;
3959;SDS011;1994;48.640;8.894;2022-08-03T09:00:23;4.30;;;2.20;;
3959;SDS011;1994;48.640;8.894;2022-08-03T09:02:49;2.00;;;1.87;;
3959;SDS011;1994;48.640;8.894;2022-08-03T09:05:16;2.10;;;1.90;;
3959;SDS011;1994;48.640;8.894;2022-08-03T09:07:43;4.90;;;2.50;;
3959;SDS011;1994;48.640;8.894;2022-08-03T09:10:11;3.00;;;1.97;;
3959;SDS011;1994;48.640;8.894;2022-08-03T09:12:43;2.40;;;2.20;;
3959;SDS011;1994;48.640;8.894;2022-08-03T09:15:16;2.70;;;2.10;;
3959;SDS011;1994;48.640;8.894;2022-08-03T09:17:57;3.83;;;2.10;;
3959;SDS011;1994;48.640;8.894;2022-08-03T09:20:30;6.10;;;2.00;;
3959;SDS011;1994;48.640;8.894;2022-08-03T09:23:02;7.53;;;2.90;;
3959;SDS011;1994;48.640;8.894;2022-08-03T09:25:35;2.23;;;1.97;;
3959;SDS011;1994;48.640;8.894;2022-08-03T09:28:08;2.00;;;1.90;;
3959;SDS011;1994;48.640;8.894;2022-08-03T09:30:45;3.13;;;2.70;;
3959;SDS011;1994;48.640;8.894;2022-08-03T09:33:24;3.30;;;2.87;;
3959;SDS011;1994;48.640;8.894;2022-08-03T09:35:49;3.30;;;2.33;;
3959;SDS011;1994;48.640;8.894;2022-08-03T09:38:16;2.67;;;2.10;;
3959;SDS011;1994;48.640;8.894;2022-08-03T09:40:51;2.27;;;2.03;;
3959;SDS011;1994;48.640;8.894;2022-08-03T09:43:19;2.43;;;2.23;;
3959;SDS011;1994;48.640;8.894;2022-08-03T09:45:45;4.73;;;2.27;;
3959;SDS011;1994;48.640;8.894;2022-08-03T09:50:53;5.33;;;2.73;;
3959;SDS011;1994;48.640;8.894;2022-08-03T09:53:21;5.13;;;2.10;;
3959;SDS011;1994;48.640;8.894;2022-08-03T09:55:58;2.33;;;2.17;;
3959;SDS011;1994;48.640;8.894;2022-08-03T09:58:26;2.37;;;2.27;;
3959;SDS011;1994;48.640;8.894;2022-08-03T10:03:26;2.37;;;2.17;;
3959;SDS011;1994;48.640;8.894;2022-08-03T10:05:55;2.30;;;2.20;;
3959;SDS011;1994;48.640;8.894;2022-08-03T10:08:21;3.10;;;2.80;;
3959;SDS011;1994;48.640;8.894;2022-08-03T10:10:49;2.57;;;2.37;;
3959;SDS011;1994;48.640;8.894;2022-08-03T10:13:18;5.20;;;2.60;;
3959;SDS011;1994;48.640;8.894;2022-08-03T10:15:48;3.60;;;2.73;;
3959;SDS011;1994;48.640;8.894;2022-08-03T10:18:14;2.73;;;2.53;;
3959;SDS011;1994;48.640;8.894;2022-08-03T10:20:41;2.67;;;2.47;;
3959;SDS011;1994;48.640;8.894;2022-08-03T10:23:15;2.43;;;2.20;;
3959;SDS011;1994;48.640;8.894;2022-08-03T10:25:43;3.07;;;2.20;;
3959;SDS011;1994;48.640;8.894;2022-08-03T10:28:14;2.60;;;2.20;;
3959;SDS011;1994;48.640;8.894;2022-08-03T10:30:43;2.63;;;2.43;;
3959;SDS011;1994;48.640;8.894;2022-08-03T10:33:21;3.90;;;2.17;;
3959;SDS011;1994;48.640;8.894;2022-08-03T10:35:58;2.63;;;2.43;;
3959;SDS011;1994;48.640;8.894;2022-08-03T10:38:30;2.80;;;2.27;;
3959;SDS011;1994;48.640;8.894;2022-08-03T10:41:02;2.53;;;2.33;;
3959;SDS011;1994;48.640;8.894;2022-08-03T10:43:35;2.40;;;2.20;;
3959;SDS011;1994;48.640;8.894;2022-08-03T10:46:31;4.57;;;3.20;;
3959;SDS011;1994;48.640;8.894;2022-08-03T10:48:59;4.30;;;2.70;;
3959;SDS011;1994;48.640;8.894;2022-08-03T10:51:26;3.10;;;2.80;;
3959;SDS011;1994;48.640;8.894;2022-08-03T10:53:55;2.63;;;2.43;;
3959;SDS011;1994;48.640;8.894;2022-08-03T10:59:18;2.57;;;2.37;;
3959;SDS011;1994;48.640;8.894;2022-08-03T11:02:03;3.47;;;2.53;;
3959;SDS011;1994;48.640;8.894;2022-08-03T11:04:32;2.53;;;2.33;;
3959;SDS011;1994;48.640;8.894;2022-08-03T11:09:52;2.60;;;2.40;;
3959;SDS011;1994;48.640;8.894;2022-08-03T11:12:24;2.50;;;2.20;;
3959;SDS011;1994;48.640;8.894;2022-08-03T11:14:56;6.50;;;2.60;;
3959;SDS011;1994;48.640;8.894;2022-08-03T11:17:28;3.20;;;2.33;;
3959;SDS011;1994;48.640;8.894;2022-08-03T11:19:54;4.33;;;2.00;;
3959;SDS011;1994;48.640;8.894;2022-08-03T11:22:20;3.43;;;2.23;;
3959;SDS011;1994;48.640;8.894;2022-08-03T11:27:31;2.50;;;2.30;;
3959;SDS011;1994;48.640;8.894;2022-08-03T11:30:07;7.33;;;2.73;;
3959;SDS011;1994;48.640;8.894;2022-08-03T11:35:17;4.47;;;2.70;;
3959;SDS011;1994;48.640;8.894;2022-08-03T11:40:40;4.23;;;2.70;;
3959;SDS011;1994;48.640;8.894;2022-08-03T11:48:41;2.63;;;2.43;;
3959;SDS011;1994;48.640;8.894;2022-08-03T11:51:24;1.90;;;1.80;;
3959;SDS011;1994;48.640;8.894;2022-08-03T11:56:25;2.70;;;2.50;;
3959;SDS011;1994;48.640;8.894;2022-08-03T11:58:56;3.27;;;2.43;;
3959;SDS011;1994;48.640;8.894;2022-08-03T12:01:23;5.40;;;2.50;;
3959;SDS011;1994;48.640;8.894;2022-08-03T12:03:56;2.50;;;2.30;;
3959;SDS011;1994;48.640;8.894;2022-08-03T12:06:30;2.57;;;2.37;;
3959;SDS011;1994;48.640;8.894;2022-08-03T12:09:16;3.90;;;2.50;;
3959;SDS011;1994;48.640;8.894;2022-08-03T12:11:49;3.83;;;2.40;;
3959;SDS011;1994;48.640;8.894;2022-08-03T12:14:15;2.40;;;2.20;;
3959;SDS011;1994;48.640;8.894;2022-08-03T12:16:48;2.40;;;2.20;;
3959;SDS011;1994;48.640;8.894;2022-08-03T12:19:14;2.17;;;2.07;;
3959;SDS011;1994;48.640;8.894;2022-08-03T12:21:47;2.30;;;2.07;;
3959;SDS011;1994;48.640;8.894;2022-08-03T12:24:14;4.20;;;2.30;;
3959;SDS011;1994;48.640;8.894;2022-08-03T12:26:44;2.97;;;2.10;;
3959;SDS011;1994;48.640;8.894;2022-08-03T12:29:18;2.60;;;2.40;;
3959;SDS011;1994;48.640;8.894;2022-08-03T12:31:46;5.47;;;3.00;;
3959;SDS011;1994;48.640;8.894;2022-08-03T12:34:12;3.10;;;2.00;;
3959;SDS011;1994;48.640;8.894;2022-08-03T12:36:48;3.40;;;2.20;;
3959;SDS011;1994;48.640;8.894;2022-08-03T12:39:16;2.60;;;2.40;;
3959;SDS011;1994;48.640;8.894;2022-08-03T12:41:51;2.80;;;2.60;;
3959;SDS011;1994;48.640;8.894;2022-08-03T12:44:27;2.67;;;2.47;;
3959;SDS011;1994;48.640;8.894;2022-08-03T12:46:58;3.10;;;2.37;;
3959;SDS011;1994;48.640;8.894;2022-08-03T12:49:25;3.50;;;2.10;;
3959;SDS011;1994;48.640;8.894;2022-08-03T12:54:25;2.50;;;2.37;;
3959;SDS011;1994;48.640;8.894;2022-08-03T12:56:59;5.07;;;4.67;;
3959;SDS011;1994;48.640;8.894;2022-08-03T12:59:30;4.33;;;2.43;;
3959;SDS011;1994;48.640;8.894;2022-08-03T13:02:01;5.13;;;2.20;;
3959;SDS011;1994;48.640;8.894;2022-08-03T13:04:29;2.80;;;2.60;;
3959;SDS011;1994;48.640;8.894;2022-08-03T13:09:47;2.10;;;2.00;;
3959;SDS011;1994;48.640;8.894;2022-08-03T13:12:18;2.45;;;2.25;;
3959;SDS011;1994;48.640;8.894;2022-08-03T13:14:51;3.10;;;2.30;;
3959;SDS011;1994;48.640;8.894;2022-08-03T13:17:20;2.60;;;2.40;;
3959;SDS011;1994;48.640;8.894;2022-08-03T13:19:46;2.57;;;2.37;;
3959;SDS011;1994;48.640;8.894;2022-08-03T13:22:14;3.00;;;2.47;;
3959;SDS011;1994;48.640;8.894;2022-08-03T13:24:45;2.20;;;2.00;;
3959;SDS011;1994;48.640;8.894;2022-08-03T13:27:14;3.60;;;2.20;;
3959;SDS011;1994;48.640;8.894;2022-08-03T13:29:43;2.10;;;2.00;;
3959;SDS011;1994;48.640;8.894;2022-08-03T13:32:09;2.30;;;2.13;;
3959;SDS011;1994;48.640;8.894;2022-08-03T13:34:36;2.33;;;2.13;;
3959;SDS011;1994;48.640;8.894;2022-08-03T13:37:02;2.50;;;2.30;;
3959;SDS011;1994;48.640;8.894;2022-08-03T13:39:28;5.10;;;2.30;;
3959;SDS011;1994;48.640;8.894;2022-08-03T13:41:54;3.25;;;2.50;;
3959;SDS011;1994;48.640;8.894;2022-08-03T13:44:20;2.40;;;2.20;;
3959;SDS011;1994;48.640;8.894;2022-08-03T13:46:49;2.60;;;2.40;;
3959;SDS011;1994;48.640;8.894;2022-08-03T13:49:15;2.45;;;2.25;;
3959;SDS011;1994;48.640;8.894;2022-08-03T13:51:41;3.55;;;2.20;;
3959;SDS011;1994;48.640;8.894;2022-08-03T13:54:09;3.28;;;2.63;;
3959;SDS011;1994;48.640;8.894;2022-08-03T13:56:35;2.17;;;2.08;;
3959;SDS011;1994;48.640;8.894;2022-08-03T13:59:01;3.95;;;2.25;;
3959;SDS011;1994;48.640;8.894;2022-08-03T14:01:27;2.38;;;2.28;;
3959;SDS011;1994;48.640;8.894;2022-08-03T14:03:55;2.50;;;2.17;;
3959;SDS011;1994;48.640;8.894;2022-08-03T14:06:22;2.80;;;2.53;;
3959;SDS011;1994;48.640;8.894;2022-08-03T14:08:52;3.95;;;2.45;;
3959;SDS011;1994;48.640;8.894;2022-08-03T14:11:19;2.20;;;2.10;;
3959;SDS011;1994;48.640;8.894;2022-08-03T14:13:45;2.40;;;2.20;;
3959;SDS011;1994;48.640;8.894;2022-08-03T14:16:10;3.17;;;2.03;;
3959;SDS011;1994;48.640;8.894;2022-08-03T14:18:36;6.90;;;2.13;;
3959;SDS011;1994;48.640;8.894;2022-08-03T14:21:03;2.47;;;2.38;;
3959;SDS011;1994;48.640;8.894;2022-08-03T14:23:29;5.13;;;2.80;;
3959;SDS011;1994;48.640;8.894;2022-08-03T14:25:56;4.88;;;2.05;;
3959;SDS011;1994;48.640;8.894;2022-08-03T14:28:22;2.40;;;2.20;;
3959;SDS011;1994;48.640;8.894;2022-08-03T14:30:52;3.97;;;2.67;;
3959;SDS011;1994;48.640;8.894;2022-08-03T14:33:22;2.50;;;2.03;;
3959;SDS011;1994;48.640;8.894;2022-08-03T14:35:48;2.97;;;2.10;;
3959;SDS011;1994;48.640;8.894;2022-08-03T14:38:18;3.80;;;2.20;;
3959;SDS011;1994;48.640;8.894;2022-08-03T14:40:45;3.80;;;2.30;;
3959;SDS011;1994;48.640;8.894;2022-08-03T14:43:11;2.37;;;2.17;;
3959;SDS011;1994;48.640;8.894;2022-08-03T14:45:41;2.47;;;2.30;;
3959;SDS011;1994;48.640;8.894;2022-08-03T14:48:10;2.63;;;2.37;;
3959;SDS011;1994;48.640;8.894;2022-08-03T14:50:36;2.67;;;2.47;;
3959;SDS011;1994;48.640;8.894;2022-08-03T14:53:02;2.70;;;2.50;;
3959;SDS011;1994;48.640;8.894;2022-08-03T14:55:31;2.77;;;2.57;;
3959;SDS011;1994;48.640;8.894;2022-08-03T14:57:58;2.97;;;2.20;;
3959;SDS011;1994;48.640;8.894;2022-08-03T15:00:26;2.20;;;2.00;;
3959;SDS011;1994;48.640;8.894;2022-08-03T15:03:00;2.57;;;2.37;;
3959;SDS011;1994;48.640;8.894;2022-08-03T15:05:29;2.20;;;2.10;;
3959;SDS011;1994;48.640;8.894;2022-08-03T15:07:55;2.70;;;2.50;;
3959;SDS011;1994;48.640;8.894;2022-08-03T15:10:27;2.60;;;2.40;;
3959;SDS011;1994;48.640;8.894;2022-08-03T15:12:53;2.43;;;2.30;;
3959;SDS011;1994;48.640;8.894;2022-08-03T15:15:19;3.00;;;2.20;;
3959;SDS011;1994;48.640;8.894;2022-08-03T15:17:45;2.40;;;2.20;;
3959;SDS011;1994;48.640;8.894;2022-08-03T15:20:11;3.43;;;2.43;;
3959;SDS011;1994;48.640;8.894;2022-08-03T15:22:40;2.30;;;2.10;;
3959;SDS011;1994;48.640;8.894;2022-08-03T15:25:06;3.07;;;2.20;;
3959;SDS011;1994;48.640;8.894;2022-08-03T15:27:35;3.07;;;2.50;;
3959;SDS011;1994;48.640;8.894;2022-08-03T15:30:01;2.60;;;2.40;;
3959;SDS011;1994;48.640;8.894;2022-08-03T15:32:30;2.83;;;2.63;;
3959;SDS011;1994;48.640;8.894;2022-08-03T15:34:57;2.53;;;2.33;;
3959;SDS011;1994;48.640;8.894;2022-08-03T15:37:26;3.40;;;2.80;;
3959;SDS011;1994;48.640;8.894;2022-08-03T15:39:52;2.53;;;2.33;;
3959;SDS011;1994;48.640;8.894;2022-08-03T15:42:18;3.53;;;3.13;;
3959;SDS011;1994;48.640;8.894;2022-08-03T15:44:44;2.40;;;2.30;;
3959;SDS011;1994;48.640;8.894;2022-08-03T15:47:10;3.10;;;2.90;;
3959;SDS011;1994;48.640;8.894;2022-08-03T15:49:36;7.17;;;2.60;;
3959;SDS011;1994;48.640;8.894;2022-08-03T15:52:01;3.10;;;2.90;;
3959;SDS011;1994;48.640;8.894;2022-08-03T15:54:28;2.90;;;2.70;;
3959;SDS011;1994;48.640;8.894;2022-08-03T15:56:53;2.83;;;2.50;;
3959;SDS011;1994;48.640;8.894;2022-08-03T15:59:19;2.87;;;2.67;;
3959;SDS011;1994;48.640;8.894;2022-08-03T16:01:47;5.60;;;2.77;;
3959;SDS011;1994;48.640;8.894;2022-08-03T16:04:13;8.67;;;2.60;;
3959;SDS011;1994;48.640;8.894;2022-08-03T16:06:39;2.83;;;2.63;;
3959;SDS011;1994;48.640;8.894;2022-08-03T16:09:05;2.37;;;2.17;;
3959;SDS011;1994;48.640;8.894;2022-08-03T16:11:33;4.63;;;2.80;;
3959;SDS011;1994;48.640;8.894;2022-08-03T16:13:59;3.10;;;2.80;;
3959;SDS011;1994;48.640;8.894;2022-08-03T16:16:25;2.47;;;2.27;;